sensor_id;sensor_type;location;lat;lon;timestamp;pressure;altitude;pressure_sealevel;temperature;humidity
63554;BME280;49699;48.072;7.800;2023-03-13T00:01:00;99044.81;;;12.06;58.21
63554;BME280;49699;48.072;7.800;2023-03-13T00:03:26;99048.34;;;12.05;58.60
63554;BME280;49699;48.072;7.800;2023-03-13T00:05:55;99039.59;;;12.06;58.44
63554;BME280;49699;48.072;7.800;2023-03-13T00:08:20;99048.16;;;12.08;58.27
63554;BME280;49699;48.072;7.800;2023-03-13T00:10:46;99044.72;;;12.07;58.36
63554;BME280;49699;48.072;7.800;2023-03-13T00:13:11;99035.00;;;12.09;58.40
63554;BME280;49699;48.072;7.800;2023-03-13T00:15:36;99033.44;;;12.07;58.43
63554;BME280;49699;48.072;7.800;2023-03-13T00:18:01;99033.44;;;12.07;58.34
63554;BME280;49699;48.072;7.800;2023-03-13T00:20:27;99030.94;;;12.05;58.52
63554;BME280;49699;48.072;7.800;2023-03-13T00:22:53;99028.22;;;12.07;58.72
63554;BME280;49699;48.072;7.800;2023-03-13T00:25:18;99017.91;;;12.05;58.80
63554;BME280;49699;48.072;7.800;2023-03-13T00:27:43;99021.22;;;12.07;58.60
63554;BME280;49699;48.072;7.800;2023-03-13T00:30:09;99018.63;;;12.07;58.46
63554;BME280;49699;48.072;7.800;2023-03-13T00:32:44;99015.06;;;12.08;58.75
63554;BME280;49699;48.072;7.800;2023-03-13T00:35:12;99021.84;;;12.11;58.54
63554;BME280;49699;48.072;7.800;2023-03-13T00:37:38;99011.53;;;12.09;58.50
63554;BME280;49699;48.072;7.800;2023-03-13T00:40:04;99011.53;;;12.09;58.67
63554;BME280;49699;48.072;7.800;2023-03-13T00:42:30;98999.31;;;12.10;58.76
63554;BME280;49699;48.072;7.800;2023-03-13T00:44:55;99001.81;;;12.11;58.58
63554;BME280;49699;48.072;7.800;2023-03-13T00:47:22;99007.88;;;12.12;58.58
63554;BME280;49699;48.072;7.800;2023-03-13T00:49:47;99003.38;;;12.14;58.74
63554;BME280;49699;48.072;7.800;2023-03-13T00:52:12;99005.78;;;12.17;58.63
63554;BME280;49699;48.072;7.800;2023-03-13T00:54:38;98997.81;;;12.18;58.42
63554;BME280;49699;48.072;7.800;2023-03-13T00:57:03;99007.00;;;12.24;58.41
63554;BME280;49699;48.072;7.800;2023-03-13T00:59:29;99001.66;;;12.26;58.32
63554;BME280;49699;48.072;7.800;2023-03-13T01:01:54;99005.72;;;12.30;58.32
63554;BME280;49699;48.072;7.800;2023-03-13T01:04:19;99003.84;;;12.32;58.35
63554;BME280;49699;48.072;7.800;2023-03-13T01:06:45;98997.59;;;12.34;58.12
63554;BME280;49699;48.072;7.800;2023-03-13T01:09:11;98997.47;;;12.36;58.22
63554;BME280;49699;48.072;7.800;2023-03-13T01:11:38;98996.28;;;12.40;57.96
63554;BME280;49699;48.072;7.800;2023-03-13T01:14:06;98995.25;;;12.42;58.05
63554;BME280;49699;48.072;7.800;2023-03-13T01:16:32;98987.31;;;12.44;58.27
63554;BME280;49699;48.072;7.800;2023-03-13T01:18:58;98991.56;;;12.45;58.72
63554;BME280;49699;48.072;7.800;2023-03-13T01:21:24;98982.91;;;12.44;58.98
63554;BME280;49699;48.072;7.800;2023-03-13T01:23:50;98989.06;;;12.43;59.33
63554;BME280;49699;48.072;7.800;2023-03-13T01:26:16;98986.91;;;12.37;59.79
63554;BME280;49699;48.072;7.800;2023-03-13T01:28:42;98978.81;;;12.29;60.54
63554;BME280;49699;48.072;7.800;2023-03-13T01:31:15;98987.28;;;12.20;61.39
63554;BME280;49699;48.072;7.800;2023-03-13T01:33:42;98993.16;;;12.11;62.21
63554;BME280;49699;48.072;7.800;2023-03-13T01:36:08;98991.91;;;12.04;62.82
63554;BME280;49699;48.072;7.800;2023-03-13T01:38:33;98987.38;;;11.95;63.72
63554;BME280;49699;48.072;7.800;2023-03-13T01:40:59;98986.22;;;11.86;64.20
63554;BME280;49699;48.072;7.800;2023-03-13T01:43:25;98981.66;;;11.77;64.85
63554;BME280;49699;48.072;7.800;2023-03-13T01:51:33;98968.72;;;11.50;66.54
63554;BME280;49699;48.072;7.800;2023-03-13T01:54:02;98958.72;;;11.44;67.18
63554;BME280;49699;48.072;7.800;2023-03-13T01:56:42;98957.38;;;11.38;67.65
63554;BME280;49699;48.072;7.800;2023-03-13T01:59:09;98955.06;;;11.34;67.85
63554;BME280;49699;48.072;7.800;2023-03-13T02:01:36;98940.16;;;11.36;67.64
63554;BME280;49699;48.072;7.800;2023-03-13T02:04:03;98943.41;;;11.39;67.41
63554;BME280;49699;48.072;7.800;2023-03-13T02:06:30;98939.66;;;11.43;67.13
63554;BME280;49699;48.072;7.800;2023-03-13T02:08:57;98928.78;;;11.49;66.67
63554;BME280;49699;48.072;7.800;2023-03-13T02:13:55;98929.84;;;11.60;66.02
63554;BME280;49699;48.072;7.800;2023-03-13T02:16:21;98931.06;;;11.67;65.25
63554;BME280;49699;48.072;7.800;2023-03-13T02:18:47;98921.16;;;11.72;65.13
63554;BME280;49699;48.072;7.800;2023-03-13T02:21:59;98929.59;;;11.75;64.88
63554;BME280;49699;48.072;7.800;2023-03-13T02:24:06;98918.97;;;11.78;64.47
63554;BME280;49699;48.072;7.800;2023-03-13T02:26:33;98903.22;;;11.80;64.58
63554;BME280;49699;48.072;7.800;2023-03-13T02:28:59;98889.25;;;11.81;64.33
63554;BME280;49699;48.072;7.800;2023-03-13T02:31:24;98890.94;;;11.82;64.11
63554;BME280;49699;48.072;7.800;2023-03-13T02:33:51;98889.13;;;11.82;64.13
63554;BME280;49699;48.072;7.800;2023-03-13T02:36:18;98894.47;;;11.81;64.37
63554;BME280;49699;48.072;7.800;2023-03-13T02:38:57;98900.63;;;11.80;64.44
63554;BME280;49699;48.072;7.800;2023-03-13T02:41:24;98886.75;;;11.79;64.29
63554;BME280;49699;48.072;7.800;2023-03-13T02:43:50;98886.66;;;11.81;64.59
63554;BME280;49699;48.072;7.800;2023-03-13T02:46:17;98890.94;;;11.82;64.74
63554;BME280;49699;48.072;7.800;2023-03-13T02:51:20;98890.09;;;11.81;64.72
63554;BME280;49699;48.072;7.800;2023-03-13T02:53:48;98894.47;;;11.81;64.82
63554;BME280;49699;48.072;7.800;2023-03-13T02:56:14;98897.19;;;11.79;64.73
63554;BME280;49699;48.072;7.800;2023-03-13T02:58:41;98892.81;;;11.80;65.04
63554;BME280;49699;48.072;7.800;2023-03-13T03:01:07;98904.19;;;11.79;64.95
63554;BME280;49699;48.072;7.800;2023-03-13T03:03:35;98891.13;;;11.79;65.11
63554;BME280;49699;48.072;7.800;2023-03-13T03:06:04;98893.75;;;11.79;65.46
63554;BME280;49699;48.072;7.800;2023-03-13T03:08:30;98893.97;;;11.76;65.45
63554;BME280;49699;48.072;7.800;2023-03-13T03:10:55;98898.63;;;11.71;65.74
63554;BME280;49699;48.072;7.800;2023-03-13T03:13:21;98888.50;;;11.66;65.79
63554;BME280;49699;48.072;7.800;2023-03-13T03:15:47;98882.72;;;11.63;66.22
63554;BME280;49699;48.072;7.800;2023-03-13T03:18:12;98901.16;;;11.60;66.18
63554;BME280;49699;48.072;7.800;2023-03-13T03:20:38;98893.88;;;11.52;66.69
63554;BME280;49699;48.072;7.800;2023-03-13T03:23:03;98894.06;;;11.49;67.01
63554;BME280;49699;48.072;7.800;2023-03-13T03:25:28;98892.75;;;11.43;67.34
63554;BME280;49699;48.072;7.800;2023-03-13T03:27:54;98887.84;;;11.39;67.44
63554;BME280;49699;48.072;7.800;2023-03-13T03:30:19;98889.09;;;11.33;67.88
63554;BME280;49699;48.072;7.800;2023-03-13T03:32:44;98891.31;;;11.27;68.04
63554;BME280;49699;48.072;7.800;2023-03-13T03:35:10;98884.75;;;11.21;68.33
63554;BME280;49699;48.072;7.800;2023-03-13T03:37:35;98888.59;;;11.16;68.86
63554;BME280;49699;48.072;7.800;2023-03-13T03:40:02;98903.72;;;11.10;69.12
63554;BME280;49699;48.072;7.800;2023-03-13T03:42:30;98896.22;;;11.06;69.93
63554;BME280;49699;48.072;7.800;2023-03-13T03:44:55;98900.81;;;11.02;69.98
63554;BME280;49699;48.072;7.800;2023-03-13T03:47:21;98900.16;;;10.99;70.28
63554;BME280;49699;48.072;7.800;2023-03-13T03:49:46;98909.13;;;10.95;71.35
63554;BME280;49699;48.072;7.800;2023-03-13T03:52:13;98899.22;;;10.87;72.11
63554;BME280;49699;48.072;7.800;2023-03-13T03:54:41;98902.44;;;10.78;72.74
63554;BME280;49699;48.072;7.800;2023-03-13T03:57:06;98903.91;;;10.69;73.55
63554;BME280;49699;48.072;7.800;2023-03-13T03:59:32;98897.53;;;10.61;74.19
63554;BME280;49699;48.072;7.800;2023-03-13T04:02:02;98903.25;;;10.53;74.76
63554;BME280;49699;48.072;7.800;2023-03-13T04:04:28;98908.84;;;10.47;75.24
63554;BME280;49699;48.072;7.800;2023-03-13T04:07:02;98901.44;;;10.41;75.71
63554;BME280;49699;48.072;7.800;2023-03-13T04:09:28;98901.34;;;10.42;76.21
63554;BME280;49699;48.072;7.800;2023-03-13T04:11:54;98892.69;;;10.42;76.20
63554;BME280;49699;48.072;7.800;2023-03-13T04:14:19;98886.56;;;10.43;76.18
63554;BME280;49699;48.072;7.800;2023-03-13T04:16:45;98890.81;;;10.44;76.08
63554;BME280;49699;48.072;7.800;2023-03-13T04:19:12;98874.19;;;10.47;76.44
63554;BME280;49699;48.072;7.800;2023-03-13T04:21:39;98866.19;;;10.50;75.96
63554;BME280;49699;48.072;7.800;2023-03-13T04:24:11;98860.88;;;10.51;75.90
63554;BME280;49699;48.072;7.800;2023-03-13T04:26:39;98859.94;;;10.52;75.53
63554;BME280;49699;48.072;7.800;2023-03-13T04:29:04;98849.44;;;10.54;75.69
63554;BME280;49699;48.072;7.800;2023-03-13T04:31:48;98846.75;;;10.55;75.20
63554;BME280;49699;48.072;7.800;2023-03-13T04:34:28;98833.63;;;10.57;74.98
63554;BME280;49699;48.072;7.800;2023-03-13T04:37:06;98842.13;;;10.59;75.12
63554;BME280;49699;48.072;7.800;2023-03-13T04:39:32;98843.72;;;10.61;74.89
63554;BME280;49699;48.072;7.800;2023-03-13T04:42:10;98864.13;;;10.67;74.86
63554;BME280;49699;48.072;7.800;2023-03-13T04:44:47;98869.97;;;10.71;74.96
63554;BME280;49699;48.072;7.800;2023-03-13T04:47:30;98877.56;;;10.74;74.58
63554;BME280;49699;48.072;7.800;2023-03-13T04:50:14;98877.97;;;10.81;74.24
63554;BME280;49699;48.072;7.800;2023-03-13T04:52:45;98884.75;;;10.83;74.24
63554;BME280;49699;48.072;7.800;2023-03-13T04:55:33;98875.69;;;10.89;74.25
63554;BME280;49699;48.072;7.800;2023-03-13T04:58:21;98872.16;;;10.90;74.34
63554;BME280;49699;48.072;7.800;2023-03-13T05:01:11;98870.28;;;10.92;74.36
63554;BME280;49699;48.072;7.800;2023-03-13T05:04:05;98867.47;;;10.95;74.45
63554;BME280;49699;48.072;7.800;2023-03-13T05:06:41;98870.28;;;10.92;74.74
63554;BME280;49699;48.072;7.800;2023-03-13T05:09:25;98862.69;;;10.89;75.48
63554;BME280;49699;48.072;7.800;2023-03-13T05:11:57;98861.03;;;10.88;75.44
63554;BME280;49699;48.072;7.800;2023-03-13T05:14:42;98860.38;;;10.84;76.31
63554;BME280;49699;48.072;7.800;2023-03-13T05:17:30;98868.41;;;10.81;76.46
63554;BME280;49699;48.072;7.800;2023-03-13T05:20:11;98863.59;;;10.75;77.08
63554;BME280;49699;48.072;7.800;2023-03-13T05:22:51;98860.28;;;10.73;77.04
63554;BME280;49699;48.072;7.800;2023-03-13T05:25:39;98847.19;;;10.74;77.47
63554;BME280;49699;48.072;7.800;2023-03-13T05:28:30;98852.97;;;10.78;77.96
63554;BME280;49699;48.072;7.800;2023-03-13T05:31:28;98853.72;;;10.80;78.13
63554;BME280;49699;48.072;7.800;2023-03-13T05:34:09;98843.19;;;10.82;78.12
63554;BME280;49699;48.072;7.800;2023-03-13T05:36:57;98841.44;;;10.82;78.31
63554;BME280;49699;48.072;7.800;2023-03-13T05:39:41;98839.56;;;10.84;78.01
63554;BME280;49699;48.072;7.800;2023-03-13T05:42:27;98835.28;;;10.83;78.06
63554;BME280;49699;48.072;7.800;2023-03-13T05:45:00;98838.84;;;10.82;78.08
63554;BME280;49699;48.072;7.800;2023-03-13T05:47:46;98848.41;;;10.82;78.14
63554;BME280;49699;48.072;7.800;2023-03-13T05:50:26;98844.03;;;10.82;78.00
63554;BME280;49699;48.072;7.800;2023-03-13T05:53:23;98855.28;;;10.83;77.72
63554;BME280;49699;48.072;7.800;2023-03-13T05:56:02;98844.78;;;10.84;77.63
63554;BME280;49699;48.072;7.800;2023-03-13T05:58:50;98845.41;;;10.88;77.38
63554;BME280;49699;48.072;7.800;2023-03-13T06:01:46;98838.41;;;10.88;77.42
63554;BME280;49699;48.072;7.800;2023-03-13T06:04:34;98846.22;;;10.88;77.35
63554;BME280;49699;48.072;7.800;2023-03-13T06:07:00;98839.25;;;10.89;77.65
63554;BME280;49699;48.072;7.800;2023-03-13T06:09:26;98834.06;;;10.89;77.62
63554;BME280;49699;48.072;7.800;2023-03-13T06:11:53;98836.56;;;10.90;77.48
63554;BME280;49699;48.072;7.800;2023-03-13T06:14:19;98838.91;;;10.93;77.62
63554;BME280;49699;48.072;7.800;2023-03-13T06:17:07;98830.91;;;10.96;77.86
63554;BME280;49699;48.072;7.800;2023-03-13T06:19:47;98822.78;;;11.01;77.75
63554;BME280;49699;48.072;7.800;2023-03-13T06:22:15;98824.25;;;11.05;77.58
63554;BME280;49699;48.072;7.800;2023-03-13T06:24:40;98819.56;;;11.10;77.35
63554;BME280;49699;48.072;7.800;2023-03-13T06:27:06;98828.81;;;11.14;77.28
63554;BME280;49699;48.072;7.800;2023-03-13T06:29:31;98821.63;;;11.18;77.35
63554;BME280;49699;48.072;7.800;2023-03-13T06:31:56;98814.22;;;11.24;76.99
63554;BME280;49699;48.072;7.800;2023-03-13T06:34:22;98810.31;;;11.30;76.81
63554;BME280;49699;48.072;7.800;2023-03-13T06:36:47;98800.41;;;11.35;76.77
63554;BME280;49699;48.072;7.800;2023-03-13T06:39:13;98805.31;;;11.39;76.21
63554;BME280;49699;48.072;7.800;2023-03-13T06:41:38;98800.50;;;11.46;76.22
63554;BME280;49699;48.072;7.800;2023-03-13T06:44:03;98808.72;;;11.53;76.13
63554;BME280;49699;48.072;7.800;2023-03-13T06:46:29;98822.25;;;11.58;75.71
63554;BME280;49699;48.072;7.800;2023-03-13T06:48:56;98815.63;;;11.65;75.68
63554;BME280;49699;48.072;7.800;2023-03-13T06:51:21;98815.22;;;11.71;75.35
63554;BME280;49699;48.072;7.800;2023-03-13T06:53:46;98824.28;;;11.78;75.10
63554;BME280;49699;48.072;7.800;2023-03-13T06:56:12;98824.78;;;11.83;74.93
63554;BME280;49699;48.072;7.800;2023-03-13T06:58:38;98825.38;;;11.87;74.64
63554;BME280;49699;48.072;7.800;2023-03-13T07:01:07;98820.69;;;11.92;74.08
63554;BME280;49699;48.072;7.800;2023-03-13T07:03:33;98830.69;;;11.98;74.13
63554;BME280;49699;48.072;7.800;2023-03-13T07:05:58;98829.47;;;12.02;74.04
63554;BME280;49699;48.072;7.800;2023-03-13T07:08:24;98830.00;;;12.07;73.87
63554;BME280;49699;48.072;7.800;2023-03-13T07:10:50;98820.91;;;12.12;73.76
63554;BME280;49699;48.072;7.800;2023-03-13T07:13:16;98825.63;;;12.18;73.49
63554;BME280;49699;48.072;7.800;2023-03-13T07:15:44;98822.47;;;12.26;73.33
63554;BME280;49699;48.072;7.800;2023-03-13T07:18:09;98819.19;;;12.35;72.97
63554;BME280;49699;48.072;7.800;2023-03-13T07:20:34;98834.16;;;12.44;72.48
63554;BME280;49699;48.072;7.800;2023-03-13T07:23:00;98822.91;;;12.55;72.00
63554;BME280;49699;48.072;7.800;2023-03-13T07:25:25;98816.88;;;12.66;71.72
63554;BME280;49699;48.072;7.800;2023-03-13T07:27:50;98832.44;;;12.78;71.01
63554;BME280;49699;48.072;7.800;2023-03-13T07:30:16;98821.88;;;12.91;70.29
63554;BME280;49699;48.072;7.800;2023-03-13T07:32:42;98812.41;;;13.01;70.13
63554;BME280;49699;48.072;7.800;2023-03-13T07:35:07;98792.56;;;13.10;69.74
63554;BME280;49699;48.072;7.800;2023-03-13T07:37:32;98787.59;;;13.18;69.34
63554;BME280;49699;48.072;7.800;2023-03-13T07:39:58;98769.09;;;13.21;69.01
63554;BME280;49699;48.072;7.800;2023-03-13T07:42:23;98771.78;;;13.31;68.67
63554;BME280;49699;48.072;7.800;2023-03-13T07:44:51;98776.19;;;13.41;68.38
63554;BME280;49699;48.072;7.800;2023-03-13T07:47:17;98767.22;;;13.55;67.99
63554;BME280;49699;48.072;7.800;2023-03-13T07:49:42;98763.50;;;13.69;67.50
63554;BME280;49699;48.072;7.800;2023-03-13T07:52:10;98757.97;;;13.83;67.07
63554;BME280;49699;48.072;7.800;2023-03-13T07:54:35;98753.41;;;13.96;66.75
63554;BME280;49699;48.072;7.800;2023-03-13T07:57:01;98754.44;;;14.05;66.27
63554;BME280;49699;48.072;7.800;2023-03-13T07:59:26;98745.25;;;14.10;66.32
63554;BME280;49699;48.072;7.800;2023-03-13T08:01:52;98734.72;;;14.21;66.04
63554;BME280;49699;48.072;7.800;2023-03-13T08:04:17;98754.34;;;14.37;65.13
63554;BME280;49699;48.072;7.800;2023-03-13T08:06:43;98768.97;;;14.50;64.86
63554;BME280;49699;48.072;7.800;2023-03-13T08:09:08;98754.69;;;14.64;64.46
63554;BME280;49699;48.072;7.800;2023-03-13T08:11:34;98743.69;;;14.70;64.17
63554;BME280;49699;48.072;7.800;2023-03-13T08:13:59;98737.34;;;14.73;63.84
63554;BME280;49699;48.072;7.800;2023-03-13T08:16:26;98739.47;;;14.79;63.49
63554;BME280;49699;48.072;7.800;2023-03-13T08:18:52;98739.91;;;14.93;63.14
63554;BME280;49699;48.072;7.800;2023-03-13T08:21:19;98744.25;;;15.14;62.69
63554;BME280;49699;48.072;7.800;2023-03-13T08:23:48;98763.38;;;15.35;61.92
63554;BME280;49699;48.072;7.800;2023-03-13T08:26:17;98754.16;;;15.50;61.49
63554;BME280;49699;48.072;7.800;2023-03-13T08:28:43;98752.91;;;15.54;61.56
63554;BME280;49699;48.072;7.800;2023-03-13T08:31:10;98739.09;;;15.52;61.44
63554;BME280;49699;48.072;7.800;2023-03-13T08:33:37;98740.94;;;15.61;61.34
63554;BME280;49699;48.072;7.800;2023-03-13T08:38:41;98727.69;;;15.92;60.05
63554;BME280;49699;48.072;7.800;2023-03-13T08:41:08;98734.72;;;16.11;59.53
63554;BME280;49699;48.072;7.800;2023-03-13T08:43:33;98723.19;;;16.31;59.10
63554;BME280;49699;48.072;7.800;2023-03-13T08:45:59;98726.09;;;16.38;58.59
63554;BME280;49699;48.072;7.800;2023-03-13T08:48:24;98732.97;;;16.48;58.38
63554;BME280;49699;48.072;7.800;2023-03-13T08:53:44;98708.00;;;16.81;57.35
63554;BME280;49699;48.072;7.800;2023-03-13T08:56:10;98701.00;;;16.99;57.01
63554;BME280;49699;48.072;7.800;2023-03-13T08:58:36;98708.69;;;17.11;56.63
63554;BME280;49699;48.072;7.800;2023-03-13T09:01:02;98704.03;;;17.22;56.35
63554;BME280;49699;48.072;7.800;2023-03-13T09:03:27;98703.47;;;17.46;55.86
63554;BME280;49699;48.072;7.800;2023-03-13T09:05:53;98696.03;;;17.59;55.07
63554;BME280;49699;48.072;7.800;2023-03-13T09:08:18;98700.94;;;17.54;55.18
63554;BME280;49699;48.072;7.800;2023-03-13T09:10:43;98691.28;;;17.63;55.02
63554;BME280;49699;48.072;7.800;2023-03-13T09:13:09;98675.28;;;17.74;54.67
63554;BME280;49699;48.072;7.800;2023-03-13T09:15:34;98670.69;;;17.76;54.37
63554;BME280;49699;48.072;7.800;2023-03-13T09:17:59;98667.72;;;17.71;54.57
63554;BME280;49699;48.072;7.800;2023-03-13T09:20:25;98666.78;;;17.80;54.31
63554;BME280;49699;48.072;7.800;2023-03-13T09:22:50;98667.19;;;17.85;54.08
63554;BME280;49699;48.072;7.800;2023-03-13T09:25:15;98680.72;;;17.90;53.93
63554;BME280;49699;48.072;7.800;2023-03-13T09:27:41;98672.41;;;18.03;53.62
63554;BME280;49699;48.072;7.800;2023-03-13T09:30:06;98673.34;;;18.20;53.17
63554;BME280;49699;48.072;7.800;2023-03-13T09:32:32;98684.44;;;18.31;52.57
63554;BME280;49699;48.072;7.800;2023-03-13T09:34:57;98663.84;;;18.27;52.58
63554;BME280;49699;48.072;7.800;2023-03-13T09:37:23;98663.13;;;18.43;52.37
63554;BME280;49699;48.072;7.800;2023-03-13T09:39:48;98645.72;;;18.58;52.01
63554;BME280;49699;48.072;7.800;2023-03-13T09:44:47;98632.38;;;19.01;51.00
63554;BME280;49699;48.072;7.800;2023-03-13T09:47:20;98620.59;;;19.30;50.44
63554;BME280;49699;48.072;7.800;2023-03-13T09:49:53;98626.53;;;19.48;50.03
63554;BME280;49699;48.072;7.800;2023-03-13T09:52:23;98620.44;;;19.56;49.96
63554;BME280;49699;48.072;7.800;2023-03-13T09:55:00;98618.28;;;19.43;50.30
63554;BME280;49699;48.072;7.800;2023-03-13T09:57:31;98613.31;;;19.24;50.69
63554;BME280;49699;48.072;7.800;2023-03-13T09:59:59;98588.75;;;19.15;50.94
63554;BME280;49699;48.072;7.800;2023-03-13T10:02:30;98587.41;;;19.11;50.79
63554;BME280;49699;48.072;7.800;2023-03-13T10:07:40;98587.97;;;19.63;48.94
63554;BME280;49699;48.072;7.800;2023-03-13T10:10:12;98584.81;;;19.68;48.56
63554;BME280;49699;48.072;7.800;2023-03-13T10:12:40;98581.69;;;19.56;48.80
63554;BME280;49699;48.072;7.800;2023-03-13T10:17:37;98574.56;;;19.16;49.99
63554;BME280;49699;48.072;7.800;2023-03-13T10:22:37;98556.94;;;18.58;51.20
63554;BME280;49699;48.072;7.800;2023-03-13T10:25:05;98555.56;;;18.46;51.59
63554;BME280;49699;48.072;7.800;2023-03-13T10:27:49;98538.94;;;18.37;51.74
63554;BME280;49699;48.072;7.800;2023-03-13T10:30:25;98538.47;;;18.42;51.88
63554;BME280;49699;48.072;7.800;2023-03-13T10:32:56;98531.31;;;18.68;51.41
63554;BME280;49699;48.072;7.800;2023-03-13T10:35:23;98520.34;;;19.14;50.49
63554;BME280;49699;48.072;7.800;2023-03-13T10:37:49;98512.03;;;19.73;49.19
63554;BME280;49699;48.072;7.800;2023-03-13T10:42:43;98490.97;;;20.52;47.53
63554;BME280;49699;48.072;7.800;2023-03-13T10:45:12;98485.44;;;20.61;47.35
63554;BME280;49699;48.072;7.800;2023-03-13T10:47:39;98468.41;;;20.64;47.29
63554;BME280;49699;48.072;7.800;2023-03-13T10:50:04;98465.41;;;20.67;47.42
63554;BME280;49699;48.072;7.800;2023-03-13T10:52:46;98458.25;;;20.75;47.13
63554;BME280;49699;48.072;7.800;2023-03-13T10:55:15;98450.94;;;21.00;46.82
63554;BME280;49699;48.072;7.800;2023-03-13T10:57:41;98436.34;;;21.27;45.79
63554;BME280;49699;48.072;7.800;2023-03-13T11:02:49;98423.59;;;21.31;45.40
63554;BME280;49699;48.072;7.800;2023-03-13T11:05:31;98425.78;;;21.42;44.97
63554;BME280;49699;48.072;7.800;2023-03-13T11:07:56;98413.72;;;21.54;44.79
63554;BME280;49699;48.072;7.800;2023-03-13T11:12:48;98395.81;;;21.71;44.27
63554;BME280;49699;48.072;7.800;2023-03-13T11:15:16;98374.19;;;21.82;43.58
63554;BME280;49699;48.072;7.800;2023-03-13T11:17:43;98374.25;;;21.89;43.45
63554;BME280;49699;48.072;7.800;2023-03-13T11:22:44;98371.84;;;22.08;42.95
63554;BME280;49699;48.072;7.800;2023-03-13T11:25:22;98362.91;;;22.09;42.57
63554;BME280;49699;48.072;7.800;2023-03-13T11:27:59;98371.94;;;22.15;42.76
63554;BME280;49699;48.072;7.800;2023-03-13T11:38:07;98340.19;;;22.22;41.75
63554;BME280;49699;48.072;7.800;2023-03-13T11:51:37;98326.84;;;22.58;40.52
63554;BME280;49699;48.072;7.800;2023-03-13T11:54:21;98321.28;;;22.74;40.20
63554;BME280;49699;48.072;7.800;2023-03-13T11:56:56;98308.91;;;22.81;40.06
63554;BME280;49699;48.072;7.800;2023-03-13T12:01:58;98297.63;;;22.72;40.54
63554;BME280;49699;48.072;7.800;2023-03-13T12:04:27;98301.28;;;22.71;40.35
63554;BME280;49699;48.072;7.800;2023-03-13T12:09:50;98277.81;;;22.47;40.96
63554;BME280;49699;48.072;7.800;2023-03-13T12:12:19;98265.38;;;22.47;40.85
63554;BME280;49699;48.072;7.800;2023-03-13T12:14:58;98250.69;;;22.45;41.04
63554;BME280;49699;48.072;7.800;2023-03-13T12:19:51;98233.28;;;22.64;40.75
63554;BME280;49699;48.072;7.800;2023-03-13T12:22:19;98216.69;;;22.83;40.44
63554;BME280;49699;48.072;7.800;2023-03-13T12:32:28;98194.25;;;23.27;39.71
63554;BME280;49699;48.072;7.800;2023-03-13T12:35:14;98184.66;;;23.26;39.73
63554;BME280;49699;48.072;7.800;2023-03-13T12:37:59;98165.28;;;23.38;39.66
63554;BME280;49699;48.072;7.800;2023-03-13T12:43:08;98156.09;;;23.47;39.61
63554;BME280;49699;48.072;7.800;2023-03-13T12:45:35;98152.66;;;23.53;39.31
63554;BME280;49699;48.072;7.800;2023-03-13T12:48:21;98154.88;;;23.50;38.94
63554;BME280;49699;48.072;7.800;2023-03-13T12:50:57;98147.13;;;23.42;39.36
63554;BME280;49699;48.072;7.800;2023-03-13T12:57:00;98128.31;;;23.50;39.25
63554;BME280;49699;48.072;7.800;2023-03-13T12:58:59;98124.03;;;23.42;39.42
63554;BME280;49699;48.072;7.800;2023-03-13T13:01:31;98134.84;;;23.34;39.62
63554;BME280;49699;48.072;7.800;2023-03-13T13:04:32;98109.91;;;23.35;39.62
63554;BME280;49699;48.072;7.800;2023-03-13T13:09:26;98102.72;;;23.09;39.09
63554;BME280;49699;48.072;7.800;2023-03-13T13:11:53;98098.19;;;22.90;39.63
63554;BME280;49699;48.072;7.800;2023-03-13T13:16:51;98087.06;;;22.73;39.55
63554;BME280;49699;48.072;7.800;2023-03-13T13:24:48;98061.81;;;22.84;39.91
63554;BME280;49699;48.072;7.800;2023-03-13T13:32:49;98044.94;;;23.11;39.22
63554;BME280;49699;48.072;7.800;2023-03-13T13:35:27;98045.38;;;23.08;39.15
63554;BME280;49699;48.072;7.800;2023-03-13T13:40:37;98042.94;;;23.33;39.02
63554;BME280;49699;48.072;7.800;2023-03-13T13:43:03;98033.56;;;23.44;38.77
63554;BME280;49699;48.072;7.800;2023-03-13T13:45:35;98014.34;;;23.42;38.68
63554;BME280;49699;48.072;7.800;2023-03-13T13:51:18;98022.84;;;22.84;39.43
63554;BME280;49699;48.072;7.800;2023-03-13T13:59:02;98000.53;;;22.11;41.26
63554;BME280;49699;48.072;7.800;2023-03-13T14:01:29;97994.31;;;21.98;41.28
63554;BME280;49699;48.072;7.800;2023-03-13T14:04:04;97986.50;;;21.90;41.78
63554;BME280;49699;48.072;7.800;2023-03-13T14:06:33;97986.31;;;21.85;41.87
63554;BME280;49699;48.072;7.800;2023-03-13T14:09:19;97981.38;;;21.81;41.96
63554;BME280;49699;48.072;7.800;2023-03-13T14:11:49;97983.16;;;21.74;42.64
63554;BME280;49699;48.072;7.800;2023-03-13T14:16:46;97971.19;;;21.78;42.31
63554;BME280;49699;48.072;7.800;2023-03-13T14:19:22;97969.59;;;21.91;42.26
63554;BME280;49699;48.072;7.800;2023-03-13T14:21:48;97962.09;;;21.94;42.50
63554;BME280;49699;48.072;7.800;2023-03-13T14:24:14;97948.03;;;21.94;42.47
63554;BME280;49699;48.072;7.800;2023-03-13T14:26:42;97952.31;;;21.95;42.53
63554;BME280;49699;48.072;7.800;2023-03-13T14:29:14;97944.16;;;22.31;41.66
63554;BME280;49699;48.072;7.800;2023-03-13T14:31:40;97939.38;;;22.80;40.83
63554;BME280;49699;48.072;7.800;2023-03-13T14:34:06;97933.09;;;23.28;39.91
63554;BME280;49699;48.072;7.800;2023-03-13T14:36:51;97926.72;;;23.68;39.13
63554;BME280;49699;48.072;7.800;2023-03-13T14:39:21;97927.47;;;23.88;38.68
63554;BME280;49699;48.072;7.800;2023-03-13T14:42:00;97916.16;;;24.13;38.43
63554;BME280;49699;48.072;7.800;2023-03-13T14:44:27;97911.16;;;24.36;37.93
63554;BME280;49699;48.072;7.800;2023-03-13T14:46:57;97908.06;;;24.39;37.88
63554;BME280;49699;48.072;7.800;2023-03-13T14:52:23;97888.34;;;24.15;37.90
63554;BME280;49699;48.072;7.800;2023-03-13T14:54:51;97872.19;;;24.17;37.69
63554;BME280;49699;48.072;7.800;2023-03-13T14:57:18;97865.84;;;24.18;37.71
63554;BME280;49699;48.072;7.800;2023-03-13T14:59:46;97849.44;;;24.21;37.80
63554;BME280;49699;48.072;7.800;2023-03-13T15:02:14;97842.06;;;24.23;37.73